createdAt,value
2022-08-10T00:03:01.376Z,17.20
2022-08-10T00:09:04.018Z,17.00
2022-08-10T00:15:07.925Z,17.00
2022-08-10T00:21:10.715Z,16.80
2022-08-10T00:27:52.061Z,16.80
2022-08-10T00:33:34.593Z,16.60
2022-08-10T00:39:39.265Z,16.50
2022-08-10T00:45:41.579Z,16.30
2022-08-10T00:51:48.748Z,16.20
2022-08-10T00:57:55.314Z,16.10
2022-08-10T01:04:54.494Z,15.90
2022-08-10T01:12:37.695Z,15.80
2022-08-10T01:17:51.802Z,15.70
2022-08-10T01:24:47.106Z,15.70
2022-08-10T01:30:55.943Z,15.60
2022-08-10T01:37:07.183Z,15.50
2022-08-10T01:43:12.620Z,15.60
2022-08-10T01:49:17.925Z,15.50
2022-08-10T01:55:21.159Z,15.50
2022-08-10T02:01:28.407Z,15.40
2022-08-10T02:07:33.259Z,15.40
2022-08-10T02:13:40.199Z,15.30
2022-08-10T02:19:43.873Z,15.20
2022-08-10T02:25:46.559Z,15.10
2022-08-10T02:31:49.601Z,14.90
2022-08-10T02:38:00.100Z,14.90
2022-08-10T02:45:19.189Z,14.70
2022-08-10T02:50:47.405Z,14.60
2022-08-10T02:57:06.685Z,14.60
2022-08-10T03:03:15.873Z,14.50
2022-08-10T03:09:19.125Z,14.50
2022-08-10T03:15:22.530Z,14.40
2022-08-10T03:21:27.894Z,14.40
2022-08-10T03:27:31.422Z,14.50
2022-08-10T03:33:37.601Z,14.40
2022-08-10T03:39:39.966Z,14.40
2022-08-10T03:45:54.756Z,14.40
2022-08-10T03:51:59.430Z,14.40
2022-08-10T03:58:01.574Z,14.40
2022-08-10T04:04:12.867Z,14.10
2022-08-10T04:10:16.636Z,14.00
2022-08-10T04:16:18.622Z,13.90
2022-08-10T04:22:25.011Z,13.90
2022-08-10T04:28:27.268Z,13.90
2022-08-10T04:34:32.453Z,13.90
2022-08-10T04:40:34.634Z,13.80
2022-08-10T04:46:56.519Z,13.90
2022-08-10T04:52:58.711Z,13.90
2022-08-10T04:59:01.006Z,14.00
2022-08-10T05:05:03.409Z,14.30
2022-08-10T05:11:05.483Z,14.70
2022-08-10T05:17:07.457Z,15.00
2022-08-10T05:23:09.433Z,15.30
2022-08-10T05:29:12.119Z,15.50
2022-08-10T05:35:14.272Z,15.70
2022-08-10T05:41:17.782Z,15.80
2022-08-10T05:47:19.835Z,16.00
2022-08-10T05:53:23.134Z,16.30
2022-08-10T06:00:33.034Z,16.50
2022-08-10T06:06:21.794Z,16.70
2022-08-10T06:12:31.329Z,17.00
2022-08-10T06:18:35.617Z,17.40
2022-08-10T06:25:02.730Z,17.70
2022-08-10T06:31:05.348Z,18.10
2022-08-10T06:37:08.586Z,18.40
2022-08-10T06:43:17.071Z,18.70
2022-08-10T06:49:23.135Z,19.10
2022-08-10T06:55:39.978Z,19.50
2022-08-10T07:01:58.562Z,19.90
2022-08-10T07:08:02.009Z,20.40
2022-08-10T07:14:14.755Z,20.90
2022-08-10T07:20:22.853Z,21.40
2022-08-10T07:26:27.197Z,21.80
2022-08-10T07:32:30.492Z,22.30
2022-08-10T07:38:35.992Z,22.60
2022-08-10T07:44:42.327Z,23.00
2022-08-10T07:50:46.386Z,23.40
2022-08-10T07:56:52.811Z,24.00
2022-08-10T08:02:57.537Z,24.30
2022-08-10T08:09:03.652Z,24.60
2022-08-10T08:16:18.739Z,24.90
2022-08-10T08:24:08.543Z,25.20
2022-08-10T08:28:01.639Z,25.50
2022-08-10T08:34:06.000Z,25.70
2022-08-10T08:40:26.403Z,26.20
2022-08-10T08:48:02.050Z,26.80
2022-08-10T08:54:01.220Z,27.00
2022-08-10T09:00:21.323Z,27.70
2022-08-10T09:06:55.044Z,27.90
2022-08-10T09:13:43.547Z,28.10
2022-08-10T09:20:17.190Z,28.30
2022-08-10T09:26:24.402Z,28.80
2022-08-10T09:36:14.338Z,28.80
2022-08-10T09:40:12.316Z,28.30
2022-08-10T09:46:47.099Z,27.50
2022-08-10T09:53:20.382Z,27.10
2022-08-10T10:00:00.132Z,28.10
2022-08-10T10:06:27.950Z,28.00
2022-08-10T10:12:51.492Z,28.80
2022-08-10T10:19:15.683Z,29.20
2022-08-10T10:25:50.653Z,28.80
2022-08-10T10:32:24.388Z,29.50
2022-08-10T10:38:36.275Z,31.00
2022-08-10T10:44:52.907Z,29.50
2022-08-10T10:51:16.908Z,29.10
2022-08-10T10:58:00.017Z,28.50
2022-08-10T11:04:27.469Z,28.30
2022-08-10T11:10:53.235Z,29.00
2022-08-10T11:17:25.909Z,28.80
2022-08-10T11:24:48.457Z,28.60
2022-08-10T11:30:20.967Z,29.20
2022-08-10T11:37:05.420Z,30.70
2022-08-10T11:43:28.856Z,30.80
2022-08-10T11:49:55.927Z,31.20
2022-08-10T11:56:09.620Z,33.10
2022-08-10T12:02:16.595Z,34.30
2022-08-10T12:10:04.278Z,35.70
2022-08-10T12:15:17.746Z,35.20
2022-08-10T12:21:26.433Z,34.20
2022-08-10T12:27:44.583Z,34.00
2022-08-10T12:34:09.834Z,36.00
2022-08-10T12:40:35.819Z,37.40
2022-08-10T12:46:53.350Z,38.20
2022-08-10T12:53:09.927Z,37.70
2022-08-10T12:59:14.670Z,38.90
2022-08-10T13:05:17.515Z,39.10
2022-08-10T13:12:38.711Z,39.10
2022-08-10T13:17:54.022Z,39.40
2022-08-10T13:24:22.287Z,39.30
2022-08-10T13:30:37.328Z,38.70
2022-08-10T13:36:41.714Z,37.40
2022-08-10T13:42:45.771Z,37.50
2022-08-10T13:48:48.189Z,36.60
2022-08-10T13:54:56.110Z,37.10
2022-08-10T14:01:01.766Z,37.40
2022-08-10T14:07:04.594Z,37.40
2022-08-10T14:13:08.385Z,36.10
2022-08-10T14:19:23.617Z,35.30
2022-08-10T14:25:25.771Z,35.20
2022-08-10T14:31:33.730Z,34.20
2022-08-10T14:37:43.394Z,34.70
2022-08-10T14:43:56.485Z,36.20
2022-08-10T14:50:00.752Z,38.00
2022-08-10T14:56:17.234Z,39.10
2022-08-10T15:02:39.871Z,39.40
2022-08-10T15:08:47.273Z,39.00
2022-08-10T15:14:52.265Z,38.00
2022-08-10T15:21:03.411Z,37.30
2022-08-10T15:27:23.492Z,35.60
2022-08-10T15:34:12.988Z,34.50
2022-08-10T15:40:26.218Z,35.50
2022-08-10T15:46:44.228Z,36.80
2022-08-10T15:53:23.296Z,38.70
2022-08-10T16:00:03.830Z,39.80
2022-08-10T16:06:08.344Z,39.20
2022-08-10T16:12:59.944Z,40.40
2022-08-10T16:19:20.365Z,40.30
2022-08-10T16:25:48.380Z,39.40
2022-08-10T16:31:59.649Z,39.60
2022-08-10T16:38:03.679Z,39.80
2022-08-10T16:44:06.890Z,39.60
2022-08-10T16:50:11.104Z,40.70
2022-08-10T16:56:14.691Z,41.00
2022-08-10T17:02:19.072Z,39.80
2022-08-10T17:08:23.743Z,39.30
2022-08-10T17:14:29.100Z,38.70
2022-08-10T17:20:39.944Z,38.10
2022-08-10T17:26:44.495Z,37.70
2022-08-10T17:32:59.272Z,37.90
2022-08-10T17:39:04.804Z,36.80
2022-08-10T17:45:13.692Z,36.20
2022-08-10T17:51:27.518Z,36.10
2022-08-10T17:57:38.732Z,35.90
2022-08-10T18:03:44.051Z,35.60
2022-08-10T18:09:54.912Z,35.10
2022-08-10T18:15:57.814Z,34.70
2022-08-10T18:22:00.211Z,33.80
2022-08-10T18:28:06.102Z,33.30
2022-08-10T18:34:12.831Z,32.10
2022-08-10T18:40:17.885Z,31.20
2022-08-10T18:46:29.782Z,29.90
2022-08-10T18:52:35.882Z,28.40
2022-08-10T18:59:09.221Z,27.30
2022-08-10T19:05:57.978Z,26.30
2022-08-10T19:12:31.697Z,25.40
2022-08-10T19:18:49.216Z,24.70
2022-08-10T19:25:19.043Z,24.10
2022-08-10T19:32:22.971Z,23.70
2022-08-10T19:38:50.733Z,23.40
2022-08-10T19:45:12.306Z,23.00
2022-08-10T19:52:20.220Z,22.70
2022-08-10T19:58:52.018Z,22.50
2022-08-10T20:05:10.506Z,22.20
2022-08-10T20:11:45.035Z,22.10
2022-08-10T20:18:45.989Z,22.00
2022-08-10T20:25:01.452Z,21.90
2022-08-10T20:31:17.531Z,21.80
2022-08-10T20:37:41.238Z,21.70
2022-08-10T20:44:27.600Z,21.60
2022-08-10T20:50:48.049Z,21.40
2022-08-10T20:57:54.556Z,21.20
2022-08-10T21:04:13.227Z,21.10
2022-08-10T21:10:55.442Z,20.90
2022-08-10T21:17:03.740Z,20.80
2022-08-10T21:23:09.085Z,20.80
2022-08-10T21:29:56.599Z,20.60
2022-08-10T21:36:23.562Z,20.50
2022-08-10T21:43:19.053Z,20.30
2022-08-10T21:50:11.162Z,20.20
2022-08-10T21:57:03.957Z,20.10
2022-08-10T22:03:25.237Z,20.00
2022-08-10T22:10:07.198Z,19.80
2022-08-10T22:16:56.139Z,19.70
2022-08-10T22:23:40.185Z,19.50
2022-08-10T22:30:07.310Z,19.10
2022-08-10T22:36:59.124Z,18.70
2022-08-10T22:43:36.326Z,18.50
2022-08-10T22:49:38.845Z,18.40
2022-08-10T22:56:12.819Z,18.20
2022-08-10T23:02:34.128Z,18.10
2022-08-10T23:08:51.424Z,17.90
2022-08-10T23:15:15.642Z,17.80
2022-08-10T23:21:19.604Z,17.80
2022-08-10T23:27:37.442Z,17.80
2022-08-10T23:33:44.624Z,17.60
2022-08-10T23:39:50.688Z,17.50
2022-08-10T23:45:57.583Z,17.40
2022-08-10T23:52:00.908Z,17.40
2022-08-10T23:58:22.195Z,17.40
